Time;durP1;ratioP1;P1;durP2;ratioP2;P2;SDS_P1;SDS_P2;PMS_P1;PMS_P2;Temp;Humidity;BMP_temperature;BMP_pressure;BME280_temperature;BME280_humidity;BME280_pressure;Samples;Min_cycle;Max_cycle;Signal;HPM_P1;HPM_P2
2022/04/25 00:01:39;;;;;;;1.83;1.73;;;9.30;99.90;;;;;;5012044;28;20177;-55
2022/04/25 00:04:05;;;;;;;2.03;1.93;;;9.30;99.90;;;;;;5011597;28;20204;-58
2022/04/25 00:06:31;;;;;;;2.00;1.90;;;9.40;99.90;;;;;;5012086;28;20288;-55
2022/04/25 00:08:56;;;;;;;1.80;1.70;;;9.40;99.90;;;;;;5011996;28;20585;-55
2022/04/25 00:11:22;;;;;;;1.80;1.70;;;9.40;99.90;;;;;;5012121;28;20187;-55
2022/04/25 00:13:48;;;;;;;2.00;1.90;;;9.30;99.90;;;;;;5011662;28;20207;-57
2022/04/25 00:16:13;;;;;;;2.20;2.00;;;9.30;99.90;;;;;;5012019;28;20177;-57
2022/04/25 00:18:39;;;;;;;2.30;2.20;;;9.20;99.90;;;;;;5011895;28;20618;-58
2022/04/25 00:21:05;;;;;;;2.50;2.30;;;9.30;99.90;;;;;;5011925;28;20180;-57
2022/04/25 00:23:32;;;;;;;2.40;2.30;;;9.30;99.90;;;;;;5011419;28;20208;-56
2022/04/25 00:25:57;;;;;;;2.57;2.37;;;9.30;99.90;;;;;;5011855;28;20267;-56
2022/04/25 00:28:23;;;;;;;2.70;2.50;;;9.30;99.90;;;;;;5011912;28;20685;-61
2022/04/25 00:30:49;;;;;;;2.50;2.30;;;9.30;99.90;;;;;;5011805;28;20282;-55
2022/04/25 00:33:15;;;;;;;2.63;2.43;;;9.30;99.90;;;;;;5011403;28;20201;-58
2022/04/25 00:35:41;;;;;;;2.87;2.67;;;9.20;99.90;;;;;;4994229;28;20173;-57
2022/04/25 00:38:11;;;;;;;3.37;3.17;;;9.20;99.90;;;;;;5011988;28;20184;-58
2022/04/25 00:40:37;;;;;;;2.83;2.60;;;9.20;99.90;;;;;;5012486;28;20184;-56
2022/04/25 00:43:02;;;;;;;2.87;2.67;;;9.20;99.90;;;;;;5015055;28;20207;-57
2022/04/25 00:45:34;;;;;;;2.67;2.47;;;9.30;99.90;;;;;;5015437;28;20176;-56
2022/04/25 00:48:00;;;;;;;2.67;2.47;;;9.20;99.90;;;;;;5015545;28;20204;-61
2022/04/25 00:50:28;;;;;;;3.63;3.33;;;9.30;99.90;;;;;;5015356;28;20214;-61
2022/04/25 00:52:53;;;;;;;3.40;3.20;;;9.30;99.90;;;;;;5014834;28;20215;-56
2022/04/25 00:55:19;;;;;;;3.50;3.20;;;9.20;99.90;;;;;;5015280;28;20181;-56
2022/04/25 00:57:45;;;;;;;4.00;3.33;;;9.20;99.90;;;;;;5015257;28;20550;-58
2022/04/25 01:00:13;;;;;;;3.57;3.27;;;9.20;99.90;;;;;;5015053;28;20200;-60
2022/04/25 01:02:39;;;;;;;4.60;3.77;;;9.20;99.90;;;;;;5014772;28;20713;-58
2022/04/25 01:05:06;;;;;;;4.20;3.80;;;9.30;99.90;;;;;;5014888;28;20191;-57
2022/04/25 01:07:35;;;;;;;4.63;4.23;;;9.30;99.90;;;;;;5015005;28;20736;-57
2022/04/25 01:10:01;;;;;;;4.50;4.10;;;9.30;99.90;;;;;;5014955;28;20204;-59
2022/04/25 01:12:28;;;;;;;4.40;4.00;;;9.30;99.90;;;;;;5014626;28;20210;-58
2022/04/25 01:15:01;;;;;;;4.60;4.20;;;9.40;99.90;;;;;;5014810;28;20180;-57
2022/04/25 01:17:27;;;;;;;4.93;4.40;;;9.40;99.90;;;;;;5014861;28;20181;-58
2022/04/25 01:19:54;;;;;;;5.23;4.73;;;9.40;99.90;;;;;;5014783;28;20181;-59
2022/04/25 01:22:27;;;;;;;6.23;5.00;;;9.40;99.90;;;;;;5015716;28;20541;-55
2022/04/25 01:27:38;;;;;;;6.00;5.40;;;9.40;99.90;;;;;;5015013;28;20546;-57
2022/04/25 01:30:05;;;;;;;7.10;6.23;;;9.40;99.90;;;;;;5014613;28;20208;-58
2022/04/25 01:32:30;;;;;;;6.67;6.07;;;9.40;99.90;;;;;;5014212;28;20246;-59
2022/04/25 01:34:56;;;;;;;7.80;6.90;;;9.40;99.90;;;;;;5014475;28;20200;-58
2022/04/25 01:37:21;;;;;;;7.50;6.80;;;9.40;99.90;;;;;;5014613;28;20184;-58
2022/04/25 01:39:49;;;;;;;7.80;7.00;;;9.40;99.90;;;;;;5014435;28;20609;-57
2022/04/25 01:42:16;;;;;;;7.27;6.57;;;9.30;99.90;;;;;;5014361;28;20187;-59
2022/04/25 01:44:42;;;;;;;8.30;7.13;;;9.40;99.90;;;;;;5014155;28;20551;-60
2022/04/25 01:47:08;;;;;;;8.20;7.40;;;9.40;99.90;;;;;;5014247;28;20243;-59
2022/04/25 01:49:34;;;;;;;9.17;7.67;;;9.40;99.90;;;;;;5014140;28;20251;-58
2022/04/25 01:52:04;;;;;;;8.47;7.67;;;9.40;99.90;;;;;;5013216;28;20184;-58
2022/04/25 01:54:32;;;;;;;8.40;7.60;;;9.40;99.90;;;;;;5013653;28;20298;-59
2022/04/25 01:56:58;;;;;;;10.87;8.53;;;9.40;99.90;;;;;;5014112;28;20227;-57
2022/04/25 01:59:24;;;;;;;9.37;8.47;;;9.40;99.90;;;;;;5014020;28;20259;-57
2022/04/25 02:01:51;;;;;;;8.97;8.07;;;9.40;99.90;;;;;;5014022;28;20187;-56
2022/04/25 02:04:17;;;;;;;9.53;8.53;;;9.30;99.90;;;;;;5013533;28;20199;-57
2022/04/25 02:06:43;;;;;;;9.40;8.50;;;9.30;99.90;;;;;;5013955;28;20204;-57
2022/04/25 02:09:08;;;;;;;9.47;8.57;;;9.30;99.90;;;;;;5013838;28;20232;-59
2022/04/25 02:11:35;;;;;;;9.77;8.77;;;9.40;99.90;;;;;;5013849;28;20552;-57
2022/04/25 02:14:01;;;;;;;9.97;8.97;;;9.40;99.90;;;;;;5013500;28;20550;-59
2022/04/25 02:16:27;;;;;;;10.77;9.67;;;11.20;99.90;;;;;;5013737;28;20176;-60
2022/04/25 02:18:53;;;;;;;10.20;9.20;;;9.50;99.90;;;;;;5013717;28;20177;-58
2022/04/25 02:21:19;;;;;;;10.40;9.10;;;9.50;99.90;;;;;;5013667;28;20180;-59
2022/04/25 02:23:44;;;;;;;10.93;9.80;;;9.40;99.90;;;;;;5013184;28;20189;-57
2022/04/25 02:26:10;;;;;;;10.43;9.43;;;9.40;99.90;;;;;;5013794;28;20172;-58
2022/04/25 02:28:37;;;;;;;11.07;9.87;;;9.40;99.90;;;;;;5013722;28;20184;-57
2022/04/25 02:31:04;;;;;;;11.20;10.00;;;9.40;99.90;;;;;;5013568;28;20223;-59
2022/04/25 02:33:31;;;;;;;10.47;9.37;;;9.40;99.90;;;;;;5012947;28;20267;-58
2022/04/25 02:35:56;;;;;;;10.20;9.20;;;9.40;99.90;;;;;;5013411;28;20172;-57
2022/04/25 02:38:22;;;;;;;11.27;10.10;;;9.40;99.90;;;;;;5013603;28;20192;-58
2022/04/25 02:41:04;;;;;;;10.77;9.67;;;9.40;99.90;;;;;;5013241;28;20185;-60
2022/04/25 02:43:34;;;;;;;11.30;9.63;;;9.50;99.90;;;;;;5012972;28;20709;-55
2022/04/25 02:46:01;;;;;;;11.37;10.17;;;9.40;99.90;;;;;;5013208;28;20202;-61
2022/04/25 02:48:27;;;;;;;10.97;9.83;;;9.30;99.90;;;;;;5013091;28;20181;-55
2022/04/25 02:50:52;;;;;;;11.33;10.13;;;9.30;99.90;;;;;;5013034;28;20207;-56
2022/04/25 02:53:18;;;;;;;11.50;10.30;;;9.30;99.90;;;;;;5012671;28;20693;-58
2022/04/25 02:55:44;;;;;;;12.03;10.83;;;9.30;99.90;;;;;;5013074;28;20180;-56
2022/04/25 02:58:09;;;;;;;12.77;11.57;;;9.40;99.90;;;;;;5012999;28;20580;-54
2022/04/25 03:00:35;;;;;;;12.43;11.13;;;9.30;99.90;;;;;;5012985;28;20180;-58
2022/04/25 03:03:01;;;;;;;12.80;11.27;;;9.30;99.90;;;;;;5012344;28;20565;-54
2022/04/25 03:05:26;;;;;;;13.30;11.93;;;9.20;99.90;;;;;;5012812;28;20181;-58
2022/04/25 03:07:52;;;;;;;13.27;11.93;;;9.20;99.90;;;;;;5012893;28;20669;-55
2022/04/25 03:10:17;;;;;;;13.87;12.33;;;9.20;99.90;;;;;;5012724;28;20248;-59
2022/04/25 03:12:43;;;;;;;13.10;11.80;;;9.20;99.90;;;;;;5012416;28;20550;-57
2022/04/25 03:15:09;;;;;;;14.37;11.97;;;9.30;99.90;;;;;;5012659;28;20577;-58
2022/04/25 03:17:34;;;;;;;14.17;12.67;;;9.30;99.90;;;;;;4995038;28;20643;-57
2022/04/25 03:20:00;;;;;;;13.63;12.23;;;9.30;99.90;;;;;;5012648;28;20676;-57
2022/04/25 03:22:26;;;;;;;14.43;13.03;;;9.30;99.90;;;;;;5012330;28;20661;-56
2022/04/25 03:24:51;;;;;;;14.50;13.00;;;9.30;99.90;;;;;;5012545;28;20197;-55
2022/04/25 03:27:17;;;;;;;13.90;12.50;;;9.40;99.90;;;;;;5012555;28;20215;-58
2022/04/25 03:29:42;;;;;;;14.37;12.87;;;9.50;99.90;;;;;;5012495;28;20200;-58
2022/04/25 03:32:08;;;;;;;13.23;11.93;;;10.00;99.90;;;;;;5012316;28;20180;-55
2022/04/25 03:34:36;;;;;;;14.03;12.60;;;9.50;99.90;;;;;;4994564;28;20196;-57
2022/04/25 03:37:02;;;;;;;12.93;11.63;;;9.50;99.90;;;;;;5012388;28;20168;-56
2022/04/25 03:39:29;;;;;;;14.57;13.10;;;9.50;99.90;;;;;;4994766;28;20181;-57
2022/04/25 03:41:54;;;;;;;14.87;13.37;;;9.50;99.90;;;;;;5012315;28;20176;-58
2022/04/25 03:44:20;;;;;;;14.63;13.17;;;9.40;99.90;;;;;;5011955;28;20210;-58
2022/04/25 03:46:46;;;;;;;13.97;12.57;;;9.40;99.90;;;;;;5012157;28;20603;-56
2022/04/25 03:49:11;;;;;;;14.20;12.70;;;9.40;99.90;;;;;;5012171;28;20207;-57
2022/04/25 03:51:37;;;;;;;14.50;13.00;;;9.50;99.90;;;;;;5012287;28;20646;-59
2022/04/25 03:54:02;;;;;;;14.30;12.80;;;9.60;99.90;;;;;;5011716;28;20270;-58
2022/04/25 03:59:13;;;;;;;14.70;13.07;;;9.50;99.90;;;;;;5012171;28;20222;-57
2022/04/25 04:01:38;;;;;;;14.97;13.50;;;9.40;99.90;;;;;;5012111;28;20168;-57
2022/04/25 04:04:05;;;;;;;14.10;12.70;;;9.40;99.90;;;;;;5011687;28;20205;-58
2022/04/25 04:06:32;;;;;;;14.63;13.23;;;9.30;99.90;;;;;;5012230;28;20203;-57
2022/04/25 04:08:58;;;;;;;14.60;13.10;;;9.30;99.90;;;;;;5012069;28;20644;-58
2022/04/25 04:11:46;;;;;;;14.70;13.20;;;9.30;99.90;;;;;;5012064;28;20175;-56
2022/04/25 04:14:09;;;;;;;14.17;12.67;;;9.40;99.90;;;;;;5011325;28;20274;-57
2022/04/25 04:16:35;;;;;;;15.07;13.47;;;9.70;99.90;;;;;;5014488;28;20184;-58
2022/04/25 04:19:00;;;;;;;14.97;13.47;;;11.00;99.90;;;;;;5016744;28;20255;-54
2022/04/25 04:21:26;;;;;;;14.53;13.03;;;9.60;99.90;;;;;;5016005;28;20187;-57
2022/04/25 04:23:51;;;;;;;14.80;13.30;;;9.60;99.90;;;;;;5015654;28;20196;-58
2022/04/25 04:26:17;;;;;;;15.13;13.53;;;9.60;99.90;;;;;;5015805;28;20561;-57
2022/04/25 04:28:43;;;;;;;14.93;13.43;;;9.60;99.90;;;;;;5015776;28;20634;-57
2022/04/25 04:31:08;;;;;;;14.53;13.03;;;9.50;99.90;;;;;;5015670;28;20204;-58
2022/04/25 04:33:34;;;;;;;14.67;13.13;;;9.60;99.90;;;;;;5015468;28;20192;-55
2022/04/25 04:36:17;;;;;;;15.30;13.80;;;9.60;99.90;;;;;;5014672;28;20180;-56
2022/04/25 04:38:43;;;;;;;14.47;13.00;;;9.60;99.90;;;;;;5014544;28;20291;-57
2022/04/25 04:41:09;;;;;;;15.10;13.60;;;9.70;99.90;;;;;;5014119;28;20545;-55
2022/04/25 04:43:35;;;;;;;15.43;13.83;;;9.70;99.90;;;;;;5014330;28;20247;-54
2022/04/25 04:46:00;;;;;;;15.23;13.73;;;9.70;99.90;;;;;;5014714;28;20573;-54
2022/04/25 04:48:26;;;;;;;15.77;14.07;;;11.00;99.90;;;;;;5015118;28;20176;-59
2022/04/25 04:50:55;;;;;;;15.17;13.67;;;9.60;99.90;;;;;;5014647;28;20305;-59
2022/04/25 04:53:21;;;;;;;15.87;14.27;;;9.60;99.90;;;;;;5014712;28;20208;-54
2022/04/25 04:55:47;;;;;;;15.47;13.87;;;9.70;99.90;;;;;;5014740;28;20192;-57
2022/04/25 04:58:13;;;;;;;15.33;13.83;;;9.60;99.90;;;;;;5015135;28;20172;-55
2022/04/25 05:00:39;;;;;;;15.00;13.43;;;9.70;99.90;;;;;;5014953;28;20188;-57
2022/04/25 05:03:05;;;;;;;15.60;14.10;;;10.90;99.90;;;;;;5014774;28;20565;-57
2022/04/25 05:05:31;;;;;;;16.60;14.90;;;9.70;99.90;;;;;;5013849;28;20184;-58
2022/04/25 05:07:56;;;;;;;15.23;13.70;;;9.80;99.90;;;;;;5014950;28;20250;-58
2022/04/25 05:10:22;;;;;;;15.90;14.30;;;9.80;99.90;;;;;;5014853;28;20283;-53
2022/04/25 05:12:55;;;;;;;15.53;14.03;;;9.80;99.90;;;;;;5008986;28;20205;-56
2022/04/25 05:15:21;;;;;;;16.10;14.50;;;9.80;99.90;;;;;;5013581;28;20207;-54
2022/04/25 05:17:48;;;;;;;15.80;14.13;;;9.70;99.90;;;;;;5000813;28;20195;-55
2022/04/25 05:20:14;;;;;;;15.77;14.17;;;11.80;99.90;;;;;;5004397;28;20191;-59
2022/04/25 05:22:44;;;;;;;15.30;13.80;;;10.80;99.90;;;;;;5014207;28;20189;-58
2022/04/25 05:25:14;;;;;;;16.27;14.63;;;9.60;99.90;;;;;;5013920;28;20188;-58
2022/04/25 05:27:43;;;;;;;15.33;13.83;;;9.60;99.90;;;;;;5015463;28;20177;-56
2022/04/25 05:30:10;;;;;;;16.80;15.10;;;9.70;99.90;;;;;;5015371;28;20709;-59
2022/04/25 05:32:46;;;;;;;15.90;14.30;;;9.70;99.90;;;;;;5014239;28;20172;-58
2022/04/25 05:35:14;;;;;;;15.50;13.97;;;9.60;99.90;;;;;;5014652;28;20661;-57
2022/04/25 05:37:39;;;;;;;15.47;13.97;;;9.60;99.90;;;;;;5014520;28;20194;-56
2022/04/25 05:40:06;;;;;;;15.60;14.00;;;9.60;99.90;;;;;;5014318;28;20307;-59
2022/04/25 05:42:33;;;;;;;15.97;14.37;;;9.70;99.90;;;;;;5014137;28;20176;-58
2022/04/25 05:45:00;;;;;;;16.67;14.97;;;9.80;99.90;;;;;;5014293;28;20180;-57
2022/04/25 05:47:26;;;;;;;15.60;13.93;;;9.70;99.90;;;;;;5014341;28;20192;-57
2022/04/25 05:52:37;;;;;;;16.37;14.77;;;9.70;99.90;;;;;;5013956;28;20211;-59
2022/04/25 05:55:03;;;;;;;15.80;14.20;;;9.70;99.90;;;;;;5013543;28;20165;-58
2022/04/25 05:57:28;;;;;;;15.80;14.20;;;9.60;99.90;;;;;;5007894;28;20208;-57
2022/04/25 05:59:54;;;;;;;16.20;14.10;;;9.70;99.90;;;;;;5011096;28;20209;-60
2022/04/25 06:02:20;;;;;;;15.33;13.67;;;9.80;99.90;;;;;;5008068;28;20183;-57
2022/04/25 06:04:45;;;;;;;16.47;14.87;;;9.70;99.90;;;;;;5012404;28;20204;-59
2022/04/25 06:07:11;;;;;;;16.53;14.73;;;9.70;99.90;;;;;;5013823;28;20181;-58
2022/04/25 06:09:37;;;;;;;15.50;13.90;;;9.60;99.90;;;;;;5013725;28;20211;-61
2022/04/25 06:12:03;;;;;;;15.57;13.43;;;9.70;99.90;;;;;;4996207;28;20222;-59
2022/04/25 06:14:30;;;;;;;15.93;14.33;;;9.80;99.90;;;;;;5013352;28;20258;-58
2022/04/25 06:16:57;;;;;;;15.53;13.93;;;9.80;99.90;;;;;;5013633;28;20236;-58
2022/04/25 06:19:23;;;;;;;14.77;13.27;;;9.90;99.90;;;;;;5013822;28;20172;-56
2022/04/25 06:21:48;;;;;;;15.60;14.00;;;9.90;99.90;;;;;;5013838;28;20190;-59
2022/04/25 06:24:14;;;;;;;16.30;14.57;;;9.90;99.90;;;;;;5013355;28;20204;-60
2022/04/25 06:26:39;;;;;;;15.23;13.73;;;9.90;99.90;;;;;;5013608;28;20552;-57
2022/04/25 06:29:05;;;;;;;14.87;13.30;;;9.90;99.90;;;;;;5013551;28;20614;-58
2022/04/25 06:31:31;;;;;;;16.17;14.23;;;9.80;99.90;;;;;;5013426;28;20254;-61
2022/04/25 06:33:58;;;;;;;15.50;14.00;;;10.00;99.90;;;;;;5013042;28;20199;-58
2022/04/25 06:36:24;;;;;;;15.50;13.97;;;10.10;99.90;;;;;;5013454;28;20601;-56
2022/04/25 06:38:49;;;;;;;15.67;14.17;;;10.90;99.90;;;;;;5012921;28;20176;-58
2022/04/25 06:41:15;;;;;;;15.50;14.00;;;10.10;99.90;;;;;;5013332;28;20180;-58
2022/04/25 06:43:40;;;;;;;15.13;13.63;;;10.20;99.90;;;;;;5012947;28;20666;-60
2022/04/25 06:46:06;;;;;;;13.80;12.40;;;10.30;99.90;;;;;;5013175;28;21230;-58
2022/04/25 06:48:32;;;;;;;14.57;13.17;;;10.30;99.90;;;;;;5013161;28;20256;-60
2022/04/25 06:50:57;;;;;;;14.20;12.80;;;10.30;99.90;;;;;;5013265;28;20208;-60
2022/04/25 06:53:24;;;;;;;14.60;13.20;;;10.30;99.90;;;;;;5012728;28;20228;-57
2022/04/25 06:55:49;;;;;;;14.50;13.10;;;10.40;99.90;;;;;;5013078;28;20276;-59
2022/04/25 06:58:15;;;;;;;14.63;13.23;;;10.40;99.90;;;;;;5013053;28;20251;-58
2022/04/25 07:00:41;;;;;;;13.40;12.10;;;10.50;99.90;;;;;;5012920;28;20258;-59
2022/04/25 07:03:06;;;;;;;14.33;12.77;;;10.80;99.90;;;;;;5012583;28;20250;-59
2022/04/25 07:05:32;;;;;;;14.47;13.03;;;10.80;99.90;;;;;;5012922;28;20176;-60
2022/04/25 07:07:58;;;;;;;14.03;12.73;;;10.90;99.90;;;;;;5013069;28;20199;-59
2022/04/25 07:10:23;;;;;;;13.87;12.53;;;10.90;99.90;;;;;;5012875;28;20247;-58
2022/04/25 07:12:49;;;;;;;14.07;12.67;;;10.90;99.90;;;;;;5012605;28;20175;-59
2022/04/25 07:15:15;;;;;;;13.73;12.33;;;11.00;99.90;;;;;;5012790;28;20231;-59
2022/04/25 07:17:41;;;;;;;12.87;11.67;;;11.10;99.90;;;;;;5012814;28;20172;-56
2022/04/25 07:20:08;;;;;;;13.17;11.87;;;11.20;99.90;;;;;;5012883;28;20727;-58
2022/04/25 07:30:46;;;;;;;12.43;11.30;;;11.30;99.90;;;;;;5008172;28;20227;-62
2022/04/25 07:33:11;;;;;;;12.70;11.40;;;11.20;99.90;;;;;;5011695;28;20208;-58
2022/04/25 07:35:39;;;;;;;12.40;11.23;;;11.10;99.90;;;;;;5012008;28;20173;-57
2022/04/25 07:38:05;;;;;;;12.60;11.40;;;11.00;99.90;;;;;;5012102;28;20203;-61
2022/04/25 07:40:31;;;;;;;12.00;10.90;;;10.90;99.90;;;;;;4977780;28;20713;-60
2022/04/25 07:42:57;;;;;;;11.80;10.60;;;10.70;99.90;;;;;;5011524;28;20274;-57
2022/04/25 07:45:23;;;;;;;12.43;11.23;;;10.70;99.90;;;;;;5011713;28;20673;-59
2022/04/25 07:47:48;;;;;;;12.60;11.40;;;10.90;99.90;;;;;;5011858;28;20186;-59
2022/04/25 07:50:16;;;;;;;11.90;10.80;;;10.90;99.90;;;;;;5009686;28;20208;-56
2022/04/25 07:52:42;;;;;;;12.07;10.87;;;10.80;99.90;;;;;;5013133;28;20577;-59
2022/04/25 07:55:08;;;;;;;12.57;11.37;;;10.70;99.90;;;;;;5011944;28;20195;-60
2022/04/25 07:57:35;;;;;;;11.37;10.00;;;10.60;99.90;;;;;;5003817;28;20184;-61
2022/04/25 08:00:02;;;;;;;12.07;10.97;;;10.60;99.90;;;;;;4992619;28;20187;-59
2022/04/25 08:02:28;;;;;;;12.07;10.87;;;10.50;99.90;;;;;;5009873;28;20254;-59
2022/04/25 08:04:54;;;;;;;13.07;11.80;;;10.50;99.90;;;;;;5011297;28;20196;-61
2022/04/25 08:07:19;;;;;;;11.83;10.63;;;10.60;99.90;;;;;;5009416;28;20565;-59
2022/04/25 08:09:45;;;;;;;12.97;11.77;;;10.60;99.90;;;;;;5011642;28;20295;-58
2022/04/25 08:20:24;;;;;;;11.60;10.47;;;10.50;99.90;;;;;;5004686;28;20231;-58
2022/04/25 08:22:50;;;;;;;11.70;10.60;;;10.50;99.90;;;;;;5009436;28;20690;-60
2022/04/25 08:25:16;;;;;;;11.30;10.20;;;10.40;99.90;;;;;;4991745;28;20184;-60
2022/04/25 08:27:42;;;;;;;10.33;9.33;;;10.50;99.90;;;;;;5002912;28;20228;-58
2022/04/25 08:30:08;;;;;;;10.93;9.83;;;12.30;99.90;;;;;;5007730;28;20201;-55
2022/04/25 08:32:33;;;;;;;9.77;8.87;;;10.40;99.90;;;;;;5003823;28;20193;-58
2022/04/25 08:35:01;;;;;;;10.40;9.43;;;10.50;99.90;;;;;;5015410;28;20658;-57
2022/04/25 08:37:27;;;;;;;9.93;8.93;;;10.60;99.90;;;;;;5023762;28;20179;-55
2022/04/25 08:39:52;;;;;;;11.17;9.97;;;10.80;99.90;;;;;;5015237;28;20192;-58
2022/04/25 08:42:20;;;;;;;10.17;9.17;;;10.90;99.90;;;;;;5030338;28;20978;-54
2022/04/25 08:44:49;;;;;;;10.70;9.73;;;10.80;99.90;;;;;;5024246;28;20204;-55
2022/04/25 08:47:15;;;;;;;13.13;9.87;;;10.70;99.90;;;;;;5014387;28;20246;-57
2022/04/25 08:49:41;;;;;;;10.63;9.63;;;10.50;99.90;;;;;;5012037;28;20661;-57
2022/04/25 08:52:07;;;;;;;10.63;9.63;;;10.30;99.90;;;;;;5004165;28;20654;-60
2022/04/25 08:54:35;;;;;;;10.77;9.70;;;10.30;99.90;;;;;;5002025;28;20209;-57
2022/04/25 08:57:03;;;;;;;10.80;9.70;;;10.30;99.90;;;;;;5003807;28;20172;-59
2022/04/25 08:59:31;;;;;;;11.27;10.17;;;10.40;99.90;;;;;;5004219;28;20664;-56
2022/04/25 09:01:57;;;;;;;11.30;10.23;;;10.60;99.90;;;;;;5009547;28;20189;-56
2022/04/25 09:04:23;;;;;;;10.40;9.40;;;10.80;99.90;;;;;;5015565;28;20201;-56
2022/04/25 09:06:52;;;;;;;12.20;11.00;;;10.80;99.90;;;;;;5015648;28;20526;-56
2022/04/25 09:09:18;;;;;;;11.27;10.17;;;10.70;99.90;;;;;;5020124;28;20177;-57
2022/04/25 09:14:28;;;;;;;11.43;10.27;;;10.60;99.90;;;;;;5022228;28;20215;-59
2022/04/25 09:16:54;;;;;;;11.27;10.07;;;10.60;99.90;;;;;;5014959;28;20176;-59
2022/04/25 09:19:20;;;;;;;11.37;10.17;;;10.60;99.90;;;;;;5014957;28;20184;-57
2022/04/25 09:21:46;;;;;;;11.90;10.70;;;10.60;99.90;;;;;;5016331;28;20195;-54
2022/04/25 09:24:27;;;;;;;11.20;10.10;;;10.50;99.90;;;;;;5012887;28;20201;-60
2022/04/25 09:27:22;;;;;;;11.07;9.97;;;10.50;99.90;;;;;;5015937;28;20180;-55
2022/04/25 09:29:48;;;;;;;12.20;11.00;;;10.70;99.90;;;;;;5012380;28;20196;-60
2022/04/25 09:32:15;;;;;;;11.60;10.50;;;10.90;99.90;;;;;;5015756;28;20199;-59
2022/04/25 09:37:45;;;;;;;10.70;9.60;;;11.10;99.90;;;;;;5011552;28;20219;-55
2022/04/25 09:40:12;;;;;;;10.73;9.70;;;11.10;99.90;;;;;;5015411;28;20192;-55
2022/04/25 09:42:38;;;;;;;11.03;9.93;;;11.20;99.90;;;;;;5012410;28;20645;-57
2022/04/25 09:45:05;;;;;;;11.30;10.20;;;11.30;99.90;;;;;;5013163;28;20231;-57
2022/04/25 09:47:33;;;;;;;10.43;9.30;;;11.60;99.90;;;;;;5012941;28;20172;-59
2022/04/25 09:50:09;;;;;;;10.27;9.27;;;11.80;99.90;;;;;;5012883;28;20208;-57
2022/04/25 09:52:59;;;;;;;10.03;9.03;;;11.70;99.90;;;;;;5012374;28;20203;-59
2022/04/25 09:55:28;;;;;;;10.33;9.33;;;11.70;99.90;;;;;;5011000;28;20579;-59
2022/04/25 09:57:54;;;;;;;8.67;7.77;;;12.00;99.90;;;;;;5012728;28;20165;-58
2022/04/25 10:00:38;;;;;;;8.60;7.80;;;11.60;99.90;;;;;;5010177;28;20601;-58
2022/04/25 10:03:05;;;;;;;8.53;7.30;;;11.70;99.90;;;;;;5010124;28;20200;-61
2022/04/25 10:05:44;;;;;;;8.03;7.23;;;12.00;99.90;;;;;;5012710;28;20180;-59
2022/04/25 10:08:11;;;;;;;7.83;7.13;;;12.20;99.90;;;;;;5010710;28;20172;-57
2022/04/25 10:10:53;;;;;;;7.97;7.20;;;12.20;99.90;;;;;;5012546;28;20197;-58
2022/04/25 10:13:19;;;;;;;8.23;7.43;;;12.40;99.90;;;;;;5009587;28;20580;-58
2022/04/25 10:15:46;;;;;;;7.50;6.47;;;12.40;99.90;;;;;;5012446;28;20164;-58
2022/04/25 10:18:13;;;;;;;7.77;7.07;;;12.40;99.90;;;;;;5012541;28;20588;-57
2022/04/25 10:20:40;;;;;;;7.93;7.23;;;12.40;99.90;;;;;;5012198;28;20172;-58
2022/04/25 10:23:10;;;;;;;8.13;7.40;;;12.20;99.90;;;;;;5012049;28;20202;-56
2022/04/25 10:25:38;;;;;;;7.93;7.17;;;12.40;99.90;;;;;;5009986;28;20170;-59
2022/04/25 10:28:11;;;;;;;7.43;6.77;;;12.60;99.90;;;;;;5012207;28;20286;-57
2022/04/25 10:30:39;;;;;;;7.03;5.97;;;12.70;99.90;;;;;;5010034;28;20296;-60
2022/04/25 10:33:16;;;;;;;7.03;6.17;;;12.50;99.90;;;;;;5011745;28;20188;-55
2022/04/25 10:35:42;;;;;;;7.97;6.93;;;12.00;99.90;;;;;;5010418;28;20168;-58
2022/04/25 10:38:47;;;;;;;7.50;6.77;;;11.80;99.90;;;;;;5011982;28;20180;-57
2022/04/25 10:44:16;;;;;;;7.37;6.70;;;11.90;99.90;;;;;;5010956;28;20219;-55
2022/04/25 10:47:04;;;;;;;7.57;6.87;;;12.10;99.90;;;;;;5011733;28;20172;-59
2022/04/25 10:49:49;;;;;;;7.03;6.43;;;12.20;99.90;;;;;;5011272;28;20669;-54
2022/04/25 10:52:52;;;;;;;6.93;6.20;;;12.40;99.90;;;;;;5008893;28;20174;-56
2022/04/25 10:55:35;;;;;;;6.10;5.60;;;12.50;99.90;;;;;;5011798;28;20260;-59
2022/04/25 10:58:03;;;;;;;7.27;6.63;;;12.70;99.90;;;;;;5009924;28;20252;-58
2022/04/25 11:00:38;;;;;;;7.40;6.70;;;12.90;99.90;;;;;;5011713;28;20246;-55
2022/04/25 11:03:12;;;;;;;6.60;6.00;;;12.80;99.90;;;;;;5011254;28;20284;-57
2022/04/25 11:05:39;;;;;;;7.10;6.50;;;12.90;99.90;;;;;;5009710;28;20166;-56
2022/04/25 11:08:20;;;;;;;6.43;5.60;;;13.00;99.90;;;;;;5011684;28;20257;-56
2022/04/25 11:10:58;;;;;;;5.87;5.37;;;13.00;99.90;;;;;;5010595;28;20189;-60
2022/04/25 11:13:29;;;;;;;6.47;5.87;;;13.00;99.90;;;;;;5009746;28;20191;-60
2022/04/25 11:15:57;;;;;;;6.00;5.50;;;13.10;99.90;;;;;;5009940;28;20256;-59
2022/04/25 11:18:37;;;;;;;6.43;5.83;;;13.70;99.90;;;;;;5012643;28;20605;-59
2022/04/25 11:21:12;;;;;;;6.73;6.13;;;13.30;99.90;;;;;;5012584;28;20181;-60
2022/04/25 11:23:44;;;;;;;6.20;5.70;;;13.40;99.90;;;;;;5012234;28;20632;-60
2022/04/25 11:26:30;;;;;;;6.77;6.17;;;13.20;99.90;;;;;;5010326;28;20197;-57
2022/04/25 11:29:01;;;;;;;7.20;6.50;;;13.30;99.90;;;;;;4931013;29;20185;-56
2022/04/25 11:31:28;;;;;;;7.40;6.80;;;13.20;99.90;;;;;;4929148;29;20216;-57
2022/04/25 11:33:58;;;;;;;6.60;6.00;;;13.40;99.90;;;;;;4921595;29;20718;-60
2022/04/25 11:36:24;;;;;;;6.83;6.23;;;13.60;99.90;;;;;;4922065;29;20178;-57
2022/04/25 11:41:37;;;;;;;5.93;5.37;;;13.60;99.90;;;;;;4930273;29;20722;-58
2022/04/25 11:44:06;;;;;;;6.20;5.70;;;13.50;99.90;;;;;;4934243;28;20222;-56
2022/04/25 11:46:34;;;;;;;6.93;6.33;;;13.50;99.90;;;;;;4926089;29;20240;-62
2022/04/25 11:49:00;;;;;;;6.80;6.20;;;13.50;99.90;;;;;;4927695;29;20815;-56
2022/04/25 11:51:33;;;;;;;6.33;5.73;;;13.20;99.90;;;;;;4924841;29;20209;-60
2022/04/25 11:54:04;;;;;;;6.63;6.03;;;12.90;99.90;;;;;;4893547;29;20725;-61
2022/04/25 11:56:32;;;;;;;6.13;5.63;;;12.80;99.90;;;;;;4909648;29;20802;-58
2022/04/25 11:58:59;;;;;;;5.77;5.27;;;12.90;99.90;;;;;;4925782;29;20187;-56
2022/04/25 12:01:38;;;;;;;7.70;6.10;;;12.80;99.90;;;;;;4920464;29;20273;-59
2022/04/25 12:04:21;;;;;;;6.73;6.10;;;12.50;99.90;;;;;;4907950;29;20195;-58
2022/04/25 12:06:57;;;;;;;6.57;6.00;;;12.20;99.90;;;;;;4986988;28;20558;-59
2022/04/25 12:18:20;;;;;;;6.00;5.50;;;12.30;99.90;;;;;;4985161;28;20842;-59
2022/04/25 12:20:49;;;;;;;6.40;5.53;;;12.40;99.90;;;;;;4999782;28;20177;-59
2022/04/25 12:23:25;;;;;;;5.93;5.33;;;12.40;99.90;;;;;;5000695;28;20558;-58
2022/04/25 12:25:52;;;;;;;6.40;5.33;;;12.60;99.90;;;;;;5000009;28;20173;-59
2022/04/25 12:28:19;;;;;;;5.50;5.00;;;12.90;99.90;;;;;;5000653;28;20261;-58
2022/04/25 12:31:03;;;;;;;6.03;5.47;;;13.30;99.90;;;;;;5010192;28;20229;-59
2022/04/25 12:33:34;;;;;;;5.83;5.33;;;13.50;99.90;;;;;;5006735;28;20252;-59
2022/04/25 12:36:27;;;;;;;5.70;5.13;;;13.30;99.90;;;;;;5009412;28;20227;-60
2022/04/25 12:38:53;;;;;;;6.17;5.00;;;13.20;99.90;;;;;;5009061;28;20194;-62
2022/04/25 12:41:23;;;;;;;5.80;5.20;;;13.30;99.90;;;;;;4994530;28;20179;-61
2022/04/25 12:43:50;;;;;;;5.83;5.30;;;13.50;99.90;;;;;;5011151;28;20203;-61
2022/04/25 12:46:32;;;;;;;5.70;5.20;;;13.30;99.90;;;;;;5031877;28;20228;-58
2022/04/25 12:49:03;;;;;;;5.97;5.47;;;13.10;99.90;;;;;;5022996;28;20195;-61
2022/04/25 12:51:38;;;;;;;6.33;5.73;;;13.00;99.90;;;;;;5022518;28;20571;-62
2022/04/25 12:54:25;;;;;;;5.40;4.90;;;12.90;99.90;;;;;;5030874;28;20212;-60
2022/04/25 12:56:55;;;;;;;6.43;5.17;;;12.80;99.90;;;;;;4980395;28;20189;-61
2022/04/25 12:59:29;;;;;;;5.60;5.10;;;13.10;99.90;;;;;;4993019;28;20625;-61
2022/04/25 13:02:04;;;;;;;5.53;5.07;;;13.20;99.90;;;;;;4979459;28;20214;-59
2022/04/25 13:04:30;;;;;;;5.70;5.20;;;13.40;99.90;;;;;;4981388;28;20210;-59
2022/04/25 13:06:56;;;;;;;5.77;5.27;;;13.70;99.90;;;;;;4983823;28;20171;-60
2022/04/25 13:09:21;;;;;;;5.43;4.67;;;13.90;99.90;;;;;;4992633;28;20175;-60
2022/04/25 13:11:47;;;;;;;5.67;5.17;;;14.10;99.90;;;;;;4958350;28;20228;-60
2022/04/25 13:14:14;;;;;;;5.40;4.90;;;14.10;99.90;;;;;;4987715;28;20211;-59
2022/04/25 13:16:40;;;;;;;5.17;4.67;;;14.00;99.90;;;;;;4979025;28;20173;-60
2022/04/25 13:19:06;;;;;;;5.83;5.30;;;14.10;99.90;;;;;;4983624;28;20685;-58
2022/04/25 13:21:34;;;;;;;5.73;5.23;;;14.30;99.90;;;;;;5045801;22;20239;-59
2022/04/25 13:24:00;;;;;;;5.83;5.33;;;14.40;99.90;;;;;;5032101;28;20176;-58
2022/04/25 13:26:26;;;;;;;5.37;4.87;;;14.40;99.90;;;;;;5032412;28;20238;-59
2022/04/25 13:28:51;;;;;;;5.23;4.73;;;14.40;99.90;;;;;;5026672;28;20187;-55
2022/04/25 13:31:17;;;;;;;5.37;4.80;;;14.50;99.90;;;;;;5014755;28;20294;-52